Humidity-temperature Sensor

Selected Measurement Type: Air Temperature

 
Air Temperature [°C]     6 entries per hour
Showing data from 10/17/2015 (00:00:00 Z) to 10/16/2015 (00:01:00 Z)
Previous Next [ Day | 3-Days | 7-Days ]
First Last
Prev [ Day | 3-Days | 7-Days ] Next
First Last

Start Time:     :
End Time:     :     
Time (in GMT) :00 :50 :40 :30 :20 :10
Previous Next [ Day | 3-Days | 7-Days ]
First Last
Prev [ Day | 3-Days | 7-Days ] Next
First Last


123 => good data
MM => data is determined as missing
-- => data not received/configured
Back to Top Back to Top
10/17/2015 00:00 to 23:10 28.28 28.26 28.27 28.47 28.34 28.38
10/16/2015 23:00 to 22:10 28.24 28.31 28.37 28.28 28.17 28.28
10/16/2015 22:00 to 21:10 28.36 28.44 28.24 28.22 28.23 28.08
10/16/2015 21:00 to 20:10 28.19 28.13 27.93 27.99 28.15 28.05
10/16/2015 20:00 to 19:10 27.97 28.06 28.04 28.01 28.18 28.11
10/16/2015 19:00 to 18:10 28.12 28.11 28.13 28.27 28.18 28.34
10/16/2015 18:00 to 17:10 28.27 28.34 28.38 28.38 28.24 28.39
10/16/2015 17:00 to 16:10 28.34 28.27 28.12 27.90 27.98 27.88
10/16/2015 16:00 to 15:10 27.81 27.45 27.84 28.15 27.76 27.88
10/16/2015 15:00 to 14:10 27.75 27.69 27.71 27.77 27.62 27.75
10/16/2015 14:00 to 13:10 27.69 27.83 27.70 27.64 27.76 27.75
10/16/2015 13:00 to 12:10 27.86 27.73 27.67 27.71 27.70 27.58
10/16/2015 12:00 to 11:10 27.73 27.62 27.74 27.57 27.90 27.81
10/16/2015 11:00 to 10:10 27.83 27.81 27.76 27.79 27.88 27.93
10/16/2015 10:00 to 9:10 27.81 27.91 27.94 27.98 27.95 27.96
10/16/2015 09:00 to 8:10 27.99 27.90 27.98 27.97 27.93 28.12
10/16/2015 08:00 to 7:10 28.07 28.27 28.17 28.09 28.15 28.18
10/16/2015 07:00 to 6:10 28.24 28.18 28.06 28.24 28.08 28.14
10/16/2015 06:00 to 5:10 28.15 28.13 28.13 28.15 28.24 28.15
10/16/2015 05:00 to 4:10 28.19 28.24 28.11 28.16 28.14 28.11
10/16/2015 04:00 to 3:10 28.21 28.15 28.28 28.15 28.09 28.28
10/16/2015 03:00 to 2:10 28.27 28.31 28.44 28.52 28.55 28.60
10/16/2015 02:00 to 1:10 28.45 28.58 28.60 28.72 28.62 28.58
10/16/2015 01:00 to 0:10 28.59 28.61 28.55 28.61 28.54 28.44